Time;durP1;ratioP1;P1;durP2;ratioP2;P2;SDS_P1;SDS_P2;PMS_P1;PMS_P2;Temp;Humidity;BMP_temperature;BMP_pressure;BME280_temperature;BME280_humidity;BME280_pressure;Samples;Min_cycle;Max_cycle;Signal;HPM_P1;HPM_P2
2021/08/05 00:02:00;;;;;;;2.28;1.17;;;16.70;74.90;;;;;;4969002;28;96721;-50
2021/08/05 00:04:31;;;;;;;2.50;1.38;;;16.70;74.90;;;;;;4974921;28;97205;-50
2021/08/05 00:07:02;;;;;;;5.03;1.25;;;16.80;74.90;;;;;;4975027;28;95237;-51
2021/08/05 00:09:34;;;;;;;1.50;0.90;;;16.70;74.70;;;;;;4974215;28;95879;-52
2021/08/05 00:12:07;;;;;;;2.72;1.13;;;16.80;74.70;;;;;;4972977;28;96151;-54
2021/08/05 00:14:38;;;;;;;3.28;1.50;;;16.80;74.80;;;;;;4975011;28;96068;-56
2021/08/05 00:17:10;;;;;;;2.83;1.23;;;16.80;74.70;;;;;;4967099;28;96550;-53
2021/08/05 00:19:42;;;;;;;1.83;0.98;;;16.90;74.80;;;;;;4962412;28;96093;-53
2021/08/05 00:22:12;;;;;;;;;;;16.90;74.80;;;;;;4973394;28;96146;-56
2021/08/05 00:24:43;;;;;;;4.07;1.63;;;17.00;74.80;;;;;;4965689;28;96524;-57
2021/08/05 00:27:15;;;;;;;2.85;1.38;;;17.00;74.80;;;;;;4977612;28;97802;-56
2021/08/05 00:29:45;;;;;;;4.78;1.73;;;17.00;74.70;;;;;;4986384;28;95879;-50
2021/08/05 00:32:15;;;;;;;2.53;1.33;;;17.00;74.60;;;;;;4969845;28;96139;-48
2021/08/05 00:34:46;;;;;;;4.47;1.40;;;17.10;74.40;;;;;;4972505;28;97976;-49
2021/08/05 00:37:19;;;;;;;3.33;1.20;;;17.10;74.40;;;;;;4973783;28;95910;-49
2021/08/05 00:39:51;;;;;;;2.97;1.30;;;17.10;74.20;;;;;;4976358;28;95355;-50
2021/08/05 00:42:22;;;;;;;1.95;1.10;;;17.20;74.10;;;;;;4971635;28;96893;-49
2021/08/05 00:44:53;;;;;;;3.88;1.30;;;17.10;74.00;;;;;;4975541;28;97346;-58
2021/08/05 00:47:30;;;;;;;2.72;1.15;;;17.20;74.00;;;;;;4985411;28;96102;-57
2021/08/05 00:50:00;;;;;;;1.83;1.02;;;17.20;74.10;;;;;;4975719;28;95415;-49
2021/08/05 00:52:31;;;;;;;3.47;1.00;;;17.30;74.30;;;;;;4976111;28;99011;-57
2021/08/05 00:55:03;;;;;;;;;;;17.30;74.20;;;;;;4969537;28;96327;-61
2021/08/05 00:57:33;;;;;;;3.22;1.10;;;17.30;74.10;;;;;;5012369;28;96688;-72
2021/08/05 01:00:04;;;;;;;3.00;1.13;;;17.40;74.20;;;;;;4964290;28;96074;-51
2021/08/05 01:02:41;;;;;;;1.42;0.77;;;17.50;74.30;;;;;;5003364;28;97035;-58
2021/08/05 01:05:15;;;;;;;2.10;1.23;;;17.50;74.30;;;;;;4995071;28;95852;-54
2021/08/05 01:08:09;;;;;;;2.17;0.80;;;17.60;74.30;;;;;;4995832;28;96381;-65
2021/08/05 01:10:53;;;;;;;1.83;0.70;;;17.60;74.30;;;;;;4974504;28;96132;-60
2021/08/05 01:13:52;;;;;;;1.05;0.80;;;17.70;74.30;;;;;;4992818;28;96873;-56
2021/08/05 01:16:29;;;;;;;1.90;1.02;;;17.70;74.60;;;;;;4990086;28;95763;-47
2021/08/05 01:19:11;;;;;;;1.17;0.70;;;17.70;74.50;;;;;;4956819;28;96255;-49
2021/08/05 01:21:48;;;;;;;;;;;17.80;73.80;;;;;;4992443;28;95758;-61
2021/08/05 01:24:24;;;;;;;2.47;1.10;;;17.80;73.80;;;;;;4989648;28;96091;-51
2021/08/05 01:27:02;;;;;;;2.00;1.05;;;17.80;73.80;;;;;;4989035;28;97606;-62
2021/08/05 01:29:35;;;;;;;1.65;0.90;;;17.90;73.90;;;;;;4975088;28;96045;-53
2021/08/05 01:32:09;;;;;;;1.52;0.90;;;17.90;73.90;;;;;;4988443;28;95726;-58
2021/08/05 01:34:41;;;;;;;1.70;1.00;;;18.00;74.00;;;;;;4991134;28;97158;-52
2021/08/05 01:37:12;;;;;;;2.42;1.00;;;18.00;74.00;;;;;;4993238;28;98233;-49
2021/08/05 01:39:45;;;;;;;1.55;0.95;;;18.00;74.00;;;;;;4993899;28;97762;-42
2021/08/05 01:42:20;;;;;;;1.58;0.80;;;18.10;74.40;;;;;;4974978;28;95774;-48
2021/08/05 01:44:53;;;;;;;0.90;0.70;;;18.10;74.80;;;;;;4993440;28;96368;-48
2021/08/05 01:47:25;;;;;;;0.82;0.60;;;18.20;74.70;;;;;;4990948;28;98379;-46
2021/08/05 01:49:56;;;;;;;;;;;18.30;74.40;;;;;;4977001;28;95747;-48
2021/08/05 01:52:28;;;;;;;1.52;0.93;;;18.30;74.50;;;;;;4994585;28;95939;-50
2021/08/05 01:55:00;;;;;;;2.08;0.95;;;18.40;74.50;;;;;;4993202;28;96287;-46
2021/08/05 01:57:32;;;;;;;0.80;0.80;;;18.50;74.60;;;;;;4993061;28;95813;-59
2021/08/05 02:00:05;;;;;;;1.98;0.75;;;18.50;74.40;;;;;;5008260;28;95666;-49
2021/08/05 02:02:39;;;;;;;0.88;0.60;;;18.50;74.50;;;;;;4991223;28;95915;-50
2021/08/05 02:05:21;;;;;;;;;;;18.60;74.60;;;;;;4994302;28;96379;-47
2021/08/05 02:08:18;;;;;;;0.75;0.75;;;18.70;74.20;;;;;;4988349;28;97411;-54
2021/08/05 02:10:56;;;;;;;1.10;0.77;;;18.80;74.30;;;;;;4988934;28;97538;-46
2021/08/05 02:13:30;;;;;;;0.55;0.55;;;18.80;73.90;;;;;;4974243;28;98145;-52
2021/08/05 02:16:05;;;;;;;0.90;0.75;;;18.90;73.90;;;;;;4986243;28;96898;-51
2021/08/05 02:18:39;;;;;;;0.95;0.70;;;18.90;73.50;;;;;;4981575;28;95958;-48
2021/08/05 02:21:13;;;;;;;1.15;0.70;;;19.00;73.40;;;;;;4969285;28;96042;-48
2021/08/05 02:23:45;;;;;;;1.80;0.93;;;19.00;73.20;;;;;;4991035;28;96621;-56
2021/08/05 02:26:17;;;;;;;2.30;0.90;;;19.10;73.20;;;;;;4989475;28;96799;-52
2021/08/05 02:28:49;;;;;;;1.00;0.60;;;19.10;73.00;;;;;;4991178;28;95720;-52
2021/08/05 02:31:20;;;;;;;1.08;0.70;;;19.20;73.10;;;;;;4971558;28;96398;-55
2021/08/05 02:33:52;;;;;;;0.60;0.60;;;19.20;73.00;;;;;;4970249;28;95934;-58
2021/08/05 02:36:24;;;;;;;1.13;0.73;;;19.20;73.00;;;;;;5006857;28;96691;-56
2021/08/05 02:38:55;;;;;;;;;;;19.30;73.10;;;;;;4991770;28;96063;-55
2021/08/05 02:41:28;;;;;;;1.27;0.87;;;19.30;73.40;;;;;;4994148;28;97179;-57
2021/08/05 02:44:00;;;;;;;0.68;0.47;;;19.30;73.10;;;;;;4991375;28;96410;-56
2021/08/05 02:46:31;;;;;;;1.73;0.60;;;19.40;72.90;;;;;;4988953;28;96033;-62
2021/08/05 02:49:02;;;;;;;1.00;0.57;;;19.40;72.80;;;;;;4975077;28;96877;-60
2021/08/05 02:51:33;;;;;;;1.15;0.82;;;19.40;72.70;;;;;;4994927;28;96091;-57
2021/08/05 02:54:07;;;;;;;0.93;0.60;;;19.50;72.70;;;;;;4975596;28;96949;-63
2021/08/05 02:56:40;;;;;;;2.15;0.70;;;19.40;72.80;;;;;;4990127;28;97971;-51
2021/08/05 02:59:12;;;;;;;0.43;0.38;;;19.50;72.80;;;;;;4972632;28;96706;-57
2021/08/05 03:01:43;;;;;;;0.65;0.65;;;19.60;72.60;;;;;;4973817;28;96005;-45
2021/08/05 03:04:15;;;;;;;1.05;0.60;;;19.60;72.70;;;;;;4992257;28;97102;-50
2021/08/05 03:06:47;;;;;;;0.98;0.68;;;19.60;72.50;;;;;;4992048;28;96904;-51
2021/08/05 03:09:19;;;;;;;0.77;0.55;;;19.60;72.50;;;;;;4992193;28;96331;-50
2021/08/05 03:11:50;;;;;;;1.08;0.80;;;19.70;72.70;;;;;;4992398;28;95663;-51
2021/08/05 03:14:21;;;;;;;1.83;0.95;;;19.60;72.50;;;;;;4992055;28;95851;-47
2021/08/05 03:16:52;;;;;;;1.70;0.50;;;19.70;72.50;;;;;;4983998;28;97547;-45
2021/08/05 03:19:22;;;;;;;0.57;0.50;;;19.70;72.50;;;;;;4975834;28;95986;-54
2021/08/05 03:21:53;;;;;;;1.58;0.70;;;19.70;72.30;;;;;;4990764;28;95218;-61
2021/08/05 03:24:24;;;;;;;1.85;0.73;;;19.70;72.50;;;;;;4974516;28;96064;-52
2021/08/05 03:26:56;;;;;;;0.77;0.75;;;19.80;72.50;;;;;;4991538;28;96107;-58
2021/08/05 03:29:26;;;;;;;1.20;0.93;;;19.80;72.40;;;;;;4992231;28;96966;-52
2021/08/05 03:31:56;;;;;;;1.88;1.10;;;19.80;72.20;;;;;;4986082;28;96532;-49
2021/08/05 03:34:27;;;;;;;;;;;19.70;68.10;;;;;;4990526;28;95826;-50
2021/08/05 03:36:59;;;;;;;1.45;1.17;;;19.50;68.70;;;;;;4994097;28;97094;-48
2021/08/05 03:39:29;;;;;;;1.10;1.00;;;19.30;69.70;;;;;;4988833;28;97316;-49
2021/08/05 03:42:00;;;;;;;1.40;1.20;;;19.10;70.20;;;;;;4989732;28;95826;-49
2021/08/05 03:44:31;;;;;;;2.17;1.00;;;19.00;70.50;;;;;;4978812;28;96618;-50
2021/08/05 03:47:02;;;;;;;1.30;1.08;;;18.90;70.60;;;;;;4991847;28;95962;-51
2021/08/05 03:49:32;;;;;;;1.95;1.10;;;18.80;70.80;;;;;;4995132;28;96066;-50
2021/08/05 03:52:03;;;;;;;2.75;1.33;;;18.70;70.90;;;;;;4997055;28;95674;-50
2021/08/05 03:54:34;;;;;;;1.55;0.90;;;18.70;71.10;;;;;;4996169;28;95725;-50
2021/08/05 03:57:05;;;;;;;;;;;18.60;71.20;;;;;;4993556;28;96549;-48
2021/08/05 03:59:35;;;;;;;1.83;1.10;;;18.60;71.30;;;;;;4995621;28;96045;-49
2021/08/05 04:02:06;;;;;;;1.63;1.00;;;18.50;71.40;;;;;;4992063;28;95718;-50
2021/08/05 04:04:41;;;;;;;1.10;0.80;;;18.40;71.60;;;;;;4995215;28;96144;-50
2021/08/05 04:07:13;;;;;;;2.08;0.75;;;18.40;71.90;;;;;;4993053;28;96980;-48
2021/08/05 04:09:44;;;;;;;2.35;1.55;;;18.50;71.80;;;;;;4993900;28;95916;-54
2021/08/05 04:12:17;;;;;;;2.35;1.35;;;18.60;71.90;;;;;;4994613;28;95731;-56
2021/08/05 04:14:48;;;;;;;1.00;0.90;;;18.70;71.80;;;;;;4995096;28;96425;-46
2021/08/05 04:17:19;;;;;;;1.77;1.00;;;18.80;71.80;;;;;;4986561;28;98231;-55
2021/08/05 04:19:51;;;;;;;2.85;1.25;;;18.90;71.90;;;;;;4979749;28;96355;-50
2021/08/05 04:22:21;;;;;;;1.05;0.80;;;18.90;71.90;;;;;;4994366;28;95762;-51
2021/08/05 04:24:53;;;;;;;1.10;0.88;;;18.90;71.80;;;;;;4992866;28;96293;-54
2021/08/05 04:27:23;;;;;;;;;;;19.00;71.80;;;;;;4994834;28;97581;-61
2021/08/05 04:29:53;;;;;;;1.40;0.90;;;19.20;72.30;;;;;;4995337;28;96513;-50
2021/08/05 04:32:23;;;;;;;1.85;1.05;;;19.30;71.30;;;;;;4990358;28;97882;-54
2021/08/05 04:34:53;;;;;;;2.75;1.08;;;19.40;71.00;;;;;;4994910;28;97801;-49
2021/08/05 04:37:24;;;;;;;1.85;1.30;;;19.50;70.90;;;;;;4993686;28;96114;-55
2021/08/05 04:39:55;;;;;;;1.07;0.97;;;19.60;70.60;;;;;;4993786;28;96564;-55
2021/08/05 04:42:27;;;;;;;1.23;1.10;;;19.80;70.60;;;;;;4996266;28;95794;-54
2021/08/05 04:44:57;;;;;;;;;;;19.90;70.40;;;;;;4995631;28;96022;-47
2021/08/05 04:47:27;;;;;;;0.80;0.80;;;19.90;70.20;;;;;;4992114;28;97238;-51
2021/08/05 04:49:58;;;;;;;1.08;0.85;;;20.00;70.10;;;;;;4994071;28;96591;-56
2021/08/05 04:52:29;;;;;;;1.10;1.00;;;20.10;70.00;;;;;;4992985;28;95855;-55
2021/08/05 04:55:02;;;;;;;1.48;1.35;;;20.20;69.90;;;;;;4992113;28;95205;-54
2021/08/05 04:57:33;;;;;;;1.60;1.00;;;20.20;69.80;;;;;;4990797;28;96418;-50
2021/08/05 05:00:05;;;;;;;1.58;1.33;;;20.20;69.80;;;;;;4993021;28;96115;-50
2021/08/05 05:02:36;;;;;;;1.23;1.13;;;20.20;70.00;;;;;;4993855;28;95858;-56
2021/08/05 05:05:07;;;;;;;1.05;0.90;;;20.30;70.00;;;;;;4995253;28;95923;-52
2021/08/05 05:07:38;;;;;;;1.20;1.10;;;20.30;70.00;;;;;;4993004;28;96213;-49
2021/08/05 05:10:14;;;;;;;1.05;0.88;;;20.30;70.00;;;;;;4992545;28;97845;-54
2021/08/05 05:12:45;;;;;;;1.08;0.88;;;20.30;70.00;;;;;;4992129;28;95794;-53
2021/08/05 05:15:16;;;;;;;0.87;0.63;;;20.30;70.00;;;;;;4990908;28;95852;-58
2021/08/05 05:17:47;;;;;;;1.05;0.95;;;20.30;70.10;;;;;;4968579;28;96087;-47
2021/08/05 05:20:21;;;;;;;1.25;1.08;;;20.30;70.10;;;;;;4984383;28;96146;-58
2021/08/05 05:22:52;;;;;;;1.17;1.08;;;20.30;70.10;;;;;;4993792;28;95901;-46
2021/08/05 05:25:23;;;;;;;;;;;20.30;70.10;;;;;;4994605;28;95837;-52
2021/08/05 05:27:54;;;;;;;1.45;1.00;;;20.30;70.30;;;;;;4993922;28;98272;-56
2021/08/05 05:30:24;;;;;;;1.10;0.93;;;20.20;70.30;;;;;;4987712;28;98478;-54
2021/08/05 05:32:54;;;;;;;1.33;1.23;;;20.30;70.30;;;;;;4991478;28;95776;-51
2021/08/05 05:35:24;;;;;;;1.33;1.13;;;20.30;70.50;;;;;;4992298;28;95682;-56
2021/08/05 05:37:59;;;;;;;1.13;1.02;;;20.30;70.70;;;;;;4991488;28;96095;-51
2021/08/05 05:40:30;;;;;;;1.05;0.95;;;20.20;70.70;;;;;;4994267;28;95823;-47
2021/08/05 05:43:01;;;;;;;1.30;0.93;;;20.20;71.00;;;;;;4993347;28;95830;-47
2021/08/05 05:45:33;;;;;;;1.70;1.10;;;20.20;71.20;;;;;;4989349;28;95666;-49
2021/08/05 05:48:06;;;;;;;2.13;1.30;;;20.20;71.20;;;;;;4992430;28;97071;-48
2021/08/05 05:50:37;;;;;;;1.48;1.30;;;19.90;67.20;;;;;;4994099;28;96350;-47
2021/08/05 05:53:09;;;;;;;2.90;1.48;;;19.70;68.00;;;;;;4994664;28;96253;-50
2021/08/05 05:55:42;;;;;;;2.20;1.42;;;19.50;69.30;;;;;;4974578;28;97257;-48
2021/08/05 05:58:12;;;;;;;2.53;1.50;;;19.40;68.80;;;;;;4989856;28;96479;-49
2021/08/05 06:00:43;;;;;;;1.70;1.60;;;19.30;69.00;;;;;;4985354;28;96287;-50
2021/08/05 06:03:14;;;;;;;2.05;1.55;;;19.20;69.00;;;;;;4991435;28;95932;-47
2021/08/05 06:05:47;;;;;;;2.75;2.13;;;19.20;69.30;;;;;;4989735;28;95951;-48
2021/08/05 06:08:19;;;;;;;3.10;1.70;;;19.10;69.40;;;;;;4990609;28;96170;-47
2021/08/05 06:10:50;;;;;;;2.58;2.05;;;19.10;69.50;;;;;;4993098;28;95967;-54
2021/08/05 06:13:21;;;;;;;1.95;1.75;;;19.10;69.70;;;;;;4992656;28;96019;-56
2021/08/05 06:15:52;;;;;;;1.87;1.60;;;19.00;69.90;;;;;;4988612;28;95849;-54
2021/08/05 06:18:23;;;;;;;2.55;1.80;;;19.00;70.10;;;;;;4978253;28;96540;-54
2021/08/05 06:20:53;;;;;;;1.87;1.50;;;18.90;70.00;;;;;;4979774;28;95920;-55
2021/08/05 06:23:24;;;;;;;2.83;1.88;;;18.90;70.00;;;;;;4988830;28;95810;-53
2021/08/05 06:25:55;;;;;;;2.78;1.63;;;18.90;70.00;;;;;;4989770;28;96022;-54
2021/08/05 06:28:27;;;;;;;2.58;1.77;;;18.90;70.00;;;;;;4989687;28;97406;-55
2021/08/05 06:30:58;;;;;;;4.30;1.95;;;18.80;70.00;;;;;;4984897;28;95874;-49
2021/08/05 06:33:28;;;;;;;2.63;2.08;;;18.80;70.20;;;;;;4988564;28;97026;-53
2021/08/05 06:36:00;;;;;;;1.92;1.77;;;18.80;70.20;;;;;;4972667;28;96125;-49
2021/08/05 06:38:30;;;;;;;3.47;1.85;;;18.70;70.30;;;;;;4989331;28;96222;-50
2021/08/05 06:41:01;;;;;;;2.30;1.63;;;18.70;70.30;;;;;;4989966;28;96592;-51
2021/08/05 06:43:32;;;;;;;;;;;18.70;70.20;;;;;;4974211;28;96427;-49
2021/08/05 06:46:02;;;;;;;3.28;1.90;;;18.70;70.30;;;;;;4987974;28;95818;-49
2021/08/05 06:48:33;;;;;;;2.73;1.93;;;18.70;70.20;;;;;;4993214;28;96123;-50
2021/08/05 06:51:04;;;;;;;2.08;1.63;;;18.80;70.30;;;;;;4992157;28;96521;-51
2021/08/05 06:53:35;;;;;;;;;;;18.70;70.40;;;;;;4993117;28;96545;-52
2021/08/05 06:56:09;;;;;;;3.78;2.15;;;18.70;70.40;;;;;;4995984;28;95909;-53
2021/08/05 06:58:39;;;;;;;1.80;1.58;;;18.70;70.40;;;;;;4993843;28;96143;-51
2021/08/05 07:01:10;;;;;;;2.92;1.88;;;18.70;70.40;;;;;;4989497;28;96008;-55
2021/08/05 07:03:42;;;;;;;2.38;2.00;;;18.70;70.40;;;;;;4991751;28;95772;-53
2021/08/05 07:06:13;;;;;;;2.10;1.45;;;18.70;70.40;;;;;;4994361;28;95852;-51
2021/08/05 07:08:45;;;;;;;4.07;2.05;;;18.70;70.40;;;;;;4991879;28;98530;-51
2021/08/05 07:11:18;;;;;;;3.03;2.25;;;18.70;70.40;;;;;;4992247;28;95996;-54
2021/08/05 07:13:49;;;;;;;2.58;1.83;;;18.60;70.40;;;;;;4994881;28;95715;-52
2021/08/05 07:16:20;;;;;;;3.35;2.03;;;18.60;70.60;;;;;;4988990;28;95981;-54
2021/08/05 07:18:50;;;;;;;2.58;2.00;;;18.50;70.60;;;;;;4979986;28;98811;-55
2021/08/05 07:21:22;;;;;;;3.90;2.55;;;18.50;71.30;;;;;;4978618;28;95546;-54
2021/08/05 07:23:53;;;;;;;3.65;2.05;;;18.50;70.60;;;;;;4995165;28;95822;-51
2021/08/05 07:26:24;;;;;;;2.28;1.73;;;18.50;70.70;;;;;;4994504;28;95823;-53
2021/08/05 07:28:55;;;;;;;;;;;18.50;70.60;;;;;;4995560;28;96362;-53
2021/08/05 07:31:26;;;;;;;2.58;2.00;;;18.50;70.50;;;;;;4993654;28;95907;-50
2021/08/05 07:33:57;;;;;;;1.83;1.70;;;18.60;70.60;;;;;;4989768;28;95863;-53
2021/08/05 07:36:28;;;;;;;3.97;1.85;;;18.60;70.50;;;;;;4996945;28;95735;-52
2021/08/05 07:38:59;;;;;;;3.63;2.08;;;18.60;70.50;;;;;;4994051;28;96253;-51
2021/08/05 07:41:30;;;;;;;3.70;2.05;;;18.50;70.50;;;;;;4995990;28;96038;-54
2021/08/05 07:44:01;;;;;;;2.73;2.10;;;18.50;70.60;;;;;;4993082;28;96732;-55
2021/08/05 07:46:31;;;;;;;2.72;2.13;;;18.50;70.60;;;;;;4991642;28;95987;-56
2021/08/05 07:49:01;;;;;;;2.80;2.20;;;18.50;70.60;;;;;;4996826;28;96079;-53
2021/08/05 07:51:32;;;;;;;2.58;2.10;;;18.50;70.60;;;;;;4976350;28;96475;-55
2021/08/05 07:54:06;;;;;;;2.45;2.10;;;18.50;70.50;;;;;;4996912;28;97683;-54
2021/08/05 07:56:38;;;;;;;3.55;1.60;;;18.50;70.70;;;;;;4996397;28;95847;-42
2021/08/05 07:59:08;;;;;;;6.40;2.17;;;18.50;71.50;;;;;;4976576;28;97340;-50
2021/08/05 08:01:40;;;;;;;8.05;2.30;;;18.50;71.70;;;;;;4970052;28;96036;-51
2021/08/05 08:04:11;;;;;;;8.73;2.60;;;18.40;71.70;;;;;;4996305;28;97483;-50
2021/08/05 08:06:42;;;;;;;;;;;18.30;71.60;;;;;;4993724;28;96207;-50
2021/08/05 08:09:13;;;;;;;6.87;2.27;;;18.20;71.80;;;;;;4995095;28;96622;-51
2021/08/05 08:11:45;;;;;;;5.20;2.10;;;18.10;72.10;;;;;;4975133;28;96142;-55
2021/08/05 08:14:15;;;;;;;2.47;1.90;;;18.10;72.20;;;;;;4992404;28;95919;-55
2021/08/05 08:16:47;;;;;;;5.18;2.30;;;18.00;72.50;;;;;;4970991;28;96147;-55
2021/08/05 08:19:18;;;;;;;4.13;2.38;;;18.00;72.50;;;;;;4980838;28;97931;-54
2021/08/05 08:21:49;;;;;;;6.25;1.92;;;17.90;72.60;;;;;;4993489;28;96337;-53
2021/08/05 08:24:21;;;;;;;;;;;17.90;72.70;;;;;;4994704;28;96522;-56
2021/08/05 08:26:53;;;;;;;3.60;2.00;;;17.80;72.60;;;;;;4997653;28;95649;-55
2021/08/05 08:29:25;;;;;;;2.67;1.80;;;17.80;72.70;;;;;;4961937;28;98691;-51
2021/08/05 08:31:56;;;;;;;4.55;2.45;;;17.70;72.80;;;;;;4991397;28;95790;-52
2021/08/05 08:34:27;;;;;;;4.30;2.20;;;17.70;72.90;;;;;;4992359;28;95780;-51
2021/08/05 08:36:58;;;;;;;3.90;2.00;;;17.70;72.80;;;;;;4994783;28;95655;-50
2021/08/05 08:39:28;;;;;;;2.47;1.80;;;17.70;73.00;;;;;;4993658;28;96389;-52
2021/08/05 08:42:01;;;;;;;4.10;2.75;;;17.70;73.10;;;;;;4993262;28;95791;-49
2021/08/05 08:44:31;;;;;;;8.75;2.35;;;17.60;73.10;;;;;;4995479;28;95667;-49
2021/08/05 08:47:01;;;;;;;4.82;2.53;;;17.60;73.10;;;;;;4984983;28;95955;-50
2021/08/05 08:49:32;;;;;;;5.05;2.80;;;17.60;73.20;;;;;;4989693;28;95934;-49
2021/08/05 08:52:05;;;;;;;4.70;2.13;;;17.50;73.10;;;;;;4976192;28;98712;-55
2021/08/05 08:54:43;;;;;;;3.30;2.55;;;17.50;73.30;;;;;;4994322;28;95677;-55
2021/08/05 08:57:16;;;;;;;3.80;2.47;;;17.50;73.40;;;;;;4994674;28;95336;-54
2021/08/05 08:59:47;;;;;;;6.05;2.95;;;17.50;73.40;;;;;;4993232;28;96954;-56
2021/08/05 09:02:17;;;;;;;2.97;2.15;;;17.40;73.50;;;;;;4989331;28;95762;-52
2021/08/05 09:04:50;;;;;;;4.60;2.90;;;17.40;73.50;;;;;;4990317;28;95906;-53
2021/08/05 09:07:25;;;;;;;6.40;3.22;;;17.30;73.50;;;;;;4987179;28;95737;-52
2021/08/05 09:09:56;;;;;;;6.40;4.00;;;17.30;73.50;;;;;;4989248;28;96572;-49
2021/08/05 09:12:27;;;;;;;7.47;3.58;;;17.50;73.10;;;;;;4991944;28;97636;-51
2021/08/05 09:14:58;;;;;;;4.97;3.03;;;17.50;72.90;;;;;;4990332;28;96050;-53
2021/08/05 09:17:33;;;;;;;6.22;3.58;;;17.50;72.80;;;;;;4984620;28;97769;-53
2021/08/05 09:20:08;;;;;;;6.53;3.50;;;17.50;72.70;;;;;;4982420;28;96491;-53
2021/08/05 09:22:46;;;;;;;4.13;3.03;;;17.50;72.70;;;;;;4991093;28;96549;-57
2021/08/05 09:25:29;;;;;;;5.55;3.50;;;17.50;72.80;;;;;;4990548;28;96450;-53
2021/08/05 09:28:14;;;;;;;5.20;3.10;;;17.50;72.90;;;;;;4991600;28;96095;-54
2021/08/05 09:30:45;;;;;;;5.45;3.45;;;17.60;73.00;;;;;;4986171;28;96951;-56
2021/08/05 09:33:17;;;;;;;7.25;3.13;;;17.60;73.00;;;;;;4989964;27;95979;-56
2021/08/05 09:35:50;;;;;;;5.95;3.33;;;17.60;73.20;;;;;;4975970;28;95666;-55
2021/08/05 09:38:25;;;;;;;6.10;3.13;;;17.60;73.10;;;;;;4991991;28;95864;-54
2021/08/05 09:41:04;;;;;;;5.53;3.60;;;17.50;73.00;;;;;;4990759;28;96116;-54
2021/08/05 09:43:36;;;;;;;6.93;3.50;;;17.50;73.20;;;;;;4992632;28;95886;-55
2021/08/05 09:46:06;;;;;;;5.97;3.38;;;17.50;73.30;;;;;;4988636;28;96068;-56
2021/08/05 09:48:45;;;;;;;6.07;3.57;;;17.50;73.30;;;;;;4991927;28;95774;-55
2021/08/05 09:51:18;;;;;;;5.30;3.40;;;17.50;73.30;;;;;;4991809;28;95838;-56
2021/08/05 09:53:56;;;;;;;5.78;3.25;;;17.50;73.30;;;;;;4989228;28;95500;-55
2021/08/05 09:56:31;;;;;;;6.55;3.58;;;17.50;73.30;;;;;;4990988;28;95735;-55
2021/08/05 09:59:11;;;;;;;6.78;3.50;;;17.40;73.30;;;;;;4975205;28;96450;-52
2021/08/05 10:02:02;;;;;;;5.38;3.30;;;17.40;73.30;;;;;;4968974;28;97088;-52
2021/08/05 10:04:36;;;;;;;6.70;3.30;;;17.40;73.50;;;;;;4991377;28;95497;-55
2021/08/05 10:07:09;;;;;;;5.15;3.05;;;17.40;73.40;;;;;;4988517;28;96819;-58
2021/08/05 10:09:41;;;;;;;4.45;2.70;;;17.40;73.30;;;;;;4989964;28;95678;-52
2021/08/05 10:12:18;;;;;;;5.75;3.15;;;17.50;73.50;;;;;;4988718;28;96248;-57
2021/08/05 10:14:51;;;;;;;5.47;2.97;;;17.50;73.60;;;;;;4987915;28;95872;-55
2021/08/05 10:17:23;;;;;;;5.03;3.17;;;17.60;73.30;;;;;;4980308;28;96025;-57
2021/08/05 10:19:59;;;;;;;3.20;2.50;;;17.70;73.20;;;;;;4972421;28;96161;-57
2021/08/05 10:22:33;;;;;;;5.38;3.05;;;17.70;73.10;;;;;;4971153;28;96112;-57
2021/08/05 10:25:09;;;;;;;5.70;3.20;;;17.70;73.00;;;;;;4972351;28;95893;-56
2021/08/05 10:27:42;;;;;;;3.85;2.80;;;17.70;73.40;;;;;;4990609;28;96465;-57
2021/08/05 10:30:17;;;;;;;4.30;2.70;;;17.80;72.70;;;;;;4987800;28;95686;-54
2021/08/05 10:32:48;;;;;;;5.63;3.38;;;17.70;72.70;;;;;;4987340;28;96590;-53
2021/08/05 10:35:18;;;;;;;4.30;3.00;;;17.70;72.70;;;;;;4992908;28;95991;-56
2021/08/05 10:37:52;;;;;;;4.68;2.80;;;17.70;72.80;;;;;;4993161;28;96527;-56
2021/08/05 10:40:23;;;;;;;4.72;3.35;;;17.70;72.90;;;;;;4992034;28;96338;-54
2021/08/05 10:42:59;;;;;;;5.45;3.08;;;17.60;72.80;;;;;;4993484;28;96496;-55
2021/08/05 10:45:32;;;;;;;5.40;3.35;;;17.60;72.80;;;;;;4985712;28;98323;-53
2021/08/05 10:48:05;;;;;;;4.55;2.97;;;17.60;72.80;;;;;;4994240;28;95520;-53
2021/08/05 10:50:43;;;;;;;5.22;3.33;;;17.60;72.80;;;;;;4996811;28;96603;-54
2021/08/05 10:53:36;;;;;;;5.43;3.10;;;17.60;72.70;;;;;;4991855;28;96792;-56
2021/08/05 10:56:32;;;;;;;5.20;3.30;;;17.60;72.70;;;;;;4991742;28;95811;-56
2021/08/05 10:59:16;;;;;;;3.63;2.85;;;17.50;72.60;;;;;;4991619;28;95959;-55
2021/08/05 11:01:49;;;;;;;3.92;2.88;;;17.50;72.70;;;;;;4988397;28;97391;-57
2021/08/05 11:04:39;;;;;;;4.13;2.60;;;17.50;72.60;;;;;;4994249;28;96372;-55
2021/08/05 11:07:25;;;;;;;4.72;3.03;;;17.50;72.60;;;;;;4993301;28;96424;-55
2021/08/05 11:10:18;;;;;;;4.95;3.08;;;17.50;72.70;;;;;;4977002;28;95919;-55
2021/08/05 11:13:16;;;;;;;3.45;2.53;;;17.50;72.60;;;;;;4994682;28;95737;-56
2021/08/05 11:15:48;;;;;;;6.03;2.88;;;17.40;72.50;;;;;;4988376;28;96393;-51
2021/08/05 11:18:21;;;;;;;5.45;3.10;;;17.40;72.50;;;;;;4983450;28;95811;-55
2021/08/05 11:20:57;;;;;;;3.95;2.80;;;17.40;72.40;;;;;;4982597;28;95911;-54
2021/08/05 11:23:29;;;;;;;4.63;2.83;;;17.40;72.30;;;;;;4993422;28;95999;-53
2021/08/05 11:25:59;;;;;;;;;;;17.30;72.40;;;;;;4977843;28;96464;-56
2021/08/05 11:28:51;;;;;;;4.93;2.55;;;17.40;72.50;;;;;;4994963;28;97165;-56
2021/08/05 11:31:29;;;;;;;3.78;2.45;;;17.40;72.70;;;;;;4992477;28;95883;-53
2021/08/05 11:34:04;;;;;;;6.38;3.55;;;17.40;72.70;;;;;;4996341;28;95473;-52
2021/08/05 11:36:43;;;;;;;5.38;2.58;;;17.40;72.60;;;;;;4992215;28;96034;-55
2021/08/05 11:39:23;;;;;;;3.50;2.60;;;17.30;72.50;;;;;;4978025;28;96524;-51
2021/08/05 11:42:17;;;;;;;3.67;2.65;;;17.30;72.50;;;;;;4993597;28;95402;-54
2021/08/05 11:44:54;;;;;;;4.10;2.40;;;17.30;72.50;;;;;;4991559;28;96009;-53
2021/08/05 11:47:40;;;;;;;3.08;2.38;;;17.30;72.50;;;;;;4987209;28;96430;-54
2021/08/05 11:50:21;;;;;;;4.40;2.67;;;17.30;72.50;;;;;;4992940;28;96056;-51
2021/08/05 11:53:14;;;;;;;4.15;2.75;;;17.30;72.60;;;;;;4993809;28;95932;-52
2021/08/05 11:55:47;;;;;;;3.95;3.03;;;17.30;72.60;;;;;;4994252;28;96365;-53
2021/08/05 11:58:18;;;;;;;3.40;2.33;;;17.30;72.50;;;;;;4993886;28;97618;-55
2021/08/05 12:00:49;;;;;;;4.28;2.72;;;17.20;72.50;;;;;;4990025;28;96336;-53
2021/08/05 12:03:20;;;;;;;;;;;17.20;72.60;;;;;;4995706;28;95741;-55
2021/08/05 12:05:51;;;;;;;3.80;2.47;;;17.30;72.60;;;;;;4996766;28;95775;-55
2021/08/05 12:08:23;;;;;;;3.15;2.38;;;17.20;72.40;;;;;;4995001;28;96603;-55
2021/08/05 12:10:53;;;;;;;;;;;17.20;72.50;;;;;;4992868;28;95763;-53
2021/08/05 12:13:25;;;;;;;4.80;2.85;;;17.20;72.60;;;;;;4996750;28;95945;-52
2021/08/05 12:15:56;;;;;;;4.57;2.65;;;17.20;72.60;;;;;;4988439;28;96402;-51
2021/08/05 12:18:28;;;;;;;3.97;2.33;;;17.10;72.60;;;;;;4981935;28;96435;-54
2021/08/05 12:21:06;;;;;;;4.17;2.70;;;17.10;72.50;;;;;;4986046;28;96563;-53
2021/08/05 12:23:44;;;;;;;3.97;3.03;;;17.20;72.60;;;;;;4994231;28;95906;-52
2021/08/05 12:26:18;;;;;;;2.58;2.38;;;17.20;72.60;;;;;;4993870;28;95811;-54
2021/08/05 12:28:52;;;;;;;4.40;3.05;;;17.20;72.70;;;;;;4988859;28;95950;-51
2021/08/05 12:31:25;;;;;;;3.97;3.00;;;17.20;72.80;;;;;;4987680;28;95787;-53
2021/08/05 12:33:56;;;;;;;5.22;2.55;;;17.20;72.80;;;;;;4974682;28;95773;-53
2021/08/05 12:36:49;;;;;;;3.10;2.70;;;17.20;72.80;;;;;;4992216;28;95956;-55
2021/08/05 12:39:25;;;;;;;4.60;2.50;;;17.10;72.90;;;;;;4991491;28;97216;-52
2021/08/05 12:41:56;;;;;;;5.20;3.13;;;17.20;72.70;;;;;;4991080;28;96880;-55
2021/08/05 12:44:31;;;;;;;4.72;2.63;;;17.30;72.70;;;;;;4990841;28;95957;-53
2021/08/05 12:47:03;;;;;;;4.05;2.90;;;17.30;72.60;;;;;;4972784;28;96070;-55
2021/08/05 12:49:37;;;;;;;;;;;17.30;72.50;;;;;;4996059;28;96103;-53
2021/08/05 12:52:10;;;;;;;4.55;2.85;;;17.30;72.50;;;;;;4995773;28;95929;-56
2021/08/05 12:54:40;;;;;;;3.70;2.78;;;17.30;72.50;;;;;;4991609;28;96036;-55
2021/08/05 12:57:17;;;;;;;5.45;3.50;;;17.30;72.50;;;;;;4975157;28;95465;-55
2021/08/05 12:59:57;;;;;;;4.60;3.00;;;17.40;72.40;;;;;;4988446;28;98379;-54
2021/08/05 13:02:26;;;;;;;3.95;2.75;;;17.30;72.40;;;;;;4986361;28;97216;-54
2021/08/05 13:05:10;;;;;;;5.80;3.17;;;17.30;72.40;;;;;;4990517;28;96113;-55
2021/08/05 13:07:42;;;;;;;5.03;3.28;;;17.40;72.50;;;;;;4991007;28;95353;-53
2021/08/05 13:10:15;;;;;;;4.82;3.17;;;17.40;72.60;;;;;;4989646;28;96663;-54
2021/08/05 13:12:51;;;;;;;5.18;3.28;;;17.30;72.70;;;;;;4993221;28;96332;-51
2021/08/05 13:15:30;;;;;;;5.10;3.28;;;17.20;72.70;;;;;;4990393;28;95300;-52
2021/08/05 13:18:01;;;;;;;4.82;3.03;;;17.20;72.80;;;;;;4986739;28;96013;-52
2021/08/05 13:20:33;;;;;;;4.13;2.92;;;17.30;73.00;;;;;;4977821;28;96273;-55
2021/08/05 13:23:04;;;;;;;5.22;3.30;;;17.20;72.90;;;;;;4994683;28;96521;-53
2021/08/05 13:25:43;;;;;;;4.70;3.05;;;17.20;73.00;;;;;;4994305;28;96058;-54